createdAt,value
2022-09-09T00:01:38.957Z,81.35
2022-09-09T00:04:12.941Z,81.51
2022-09-09T00:06:45.928Z,81.50
2022-09-09T00:09:16.073Z,81.41
2022-09-09T00:11:45.882Z,81.81
2022-09-09T00:14:18.203Z,81.47
2022-09-09T00:16:46.259Z,81.34
2022-09-09T00:19:36.213Z,81.80
2022-09-09T00:22:03.897Z,81.93
2022-09-09T00:24:40.385Z,81.85
2022-09-09T00:29:43.261Z,81.90
2022-09-09T00:32:15.480Z,81.80
2022-09-09T00:37:11.436Z,81.76
2022-09-09T00:39:40.914Z,81.80
2022-09-09T00:42:10.982Z,81.64
2022-09-09T00:44:39.162Z,81.63
2022-09-09T00:47:07.751Z,82.26
2022-09-09T00:49:42.993Z,82.45
2022-09-09T00:54:49.238Z,81.85
2022-09-09T00:57:19.023Z,82.41
2022-09-09T00:59:46.330Z,81.73
2022-09-09T01:02:23.856Z,82.13
2022-09-09T01:09:51.882Z,81.73
2022-09-09T01:17:30.522Z,81.58
2022-09-09T01:20:03.169Z,81.44
2022-09-09T01:22:31.491Z,81.80
2022-09-09T01:27:28.400Z,81.65
2022-09-09T01:29:55.949Z,81.95
2022-09-09T01:34:52.857Z,82.06
2022-09-09T01:42:15.321Z,82.19
2022-09-09T01:44:42.200Z,82.27
2022-09-09T01:47:09.701Z,82.56
2022-09-09T01:49:36.687Z,82.87
2022-09-09T01:52:04.129Z,82.65
2022-09-09T01:54:32.899Z,82.89
2022-09-09T01:59:32.544Z,82.33
2022-09-09T02:04:31.641Z,82.29
2022-09-09T02:06:59.156Z,82.65
2022-09-09T02:09:28.405Z,82.62
2022-09-09T02:12:01.417Z,82.57
2022-09-09T02:14:32.041Z,82.47
2022-09-09T02:17:04.637Z,82.85
2022-09-09T02:22:02.258Z,82.90
2022-09-09T02:24:31.303Z,82.98
2022-09-09T02:26:59.561Z,83.02
2022-09-09T02:29:30.197Z,83.07
2022-09-09T02:31:59.656Z,82.38
2022-09-09T02:34:28.970Z,82.66
2022-09-09T02:36:56.589Z,82.90
2022-09-09T02:39:23.641Z,82.97
2022-09-09T02:41:50.548Z,83.58
2022-09-09T02:44:19.214Z,83.42
2022-09-09T02:46:46.521Z,83.72
2022-09-09T02:49:16.391Z,83.95
2022-09-09T02:51:44.743Z,83.71
2022-09-09T02:56:43.289Z,84.16
2022-09-09T02:59:11.302Z,83.86
2022-09-09T03:01:38.892Z,83.65
2022-09-09T03:04:06.202Z,84.02
2022-09-09T03:06:34.163Z,84.06
2022-09-09T03:09:03.283Z,84.14
2022-09-09T03:11:30.191Z,84.31
2022-09-09T03:13:57.069Z,84.43
2022-09-09T03:16:24.223Z,84.26
2022-09-09T03:18:51.021Z,84.34
2022-09-09T03:23:43.444Z,84.27
2022-09-09T03:26:11.422Z,84.48
2022-09-09T03:28:38.847Z,84.65
2022-09-09T03:31:06.349Z,84.61
2022-09-09T03:33:33.458Z,84.90
2022-09-09T03:36:00.210Z,85.13
2022-09-09T03:38:27.203Z,85.18
2022-09-09T03:48:17.059Z,85.21
2022-09-09T03:50:49.410Z,85.14
2022-09-09T03:53:17.795Z,85.08
2022-09-09T03:55:45.648Z,85.15
2022-09-09T03:58:13.208Z,85.16
2022-09-09T04:03:07.623Z,85.14
2022-09-09T04:10:59.170Z,85.21
2022-09-09T04:13:27.232Z,85.66
2022-09-09T04:15:54.242Z,85.66
2022-09-09T04:18:21.311Z,85.55
2022-09-09T04:20:48.900Z,85.50
2022-09-09T04:23:16.286Z,85.55
2022-09-09T04:25:48.683Z,85.75
2022-09-09T04:30:48.137Z,85.47
2022-09-09T04:33:15.258Z,85.80
2022-09-09T04:35:42.254Z,85.65
2022-09-09T04:38:09.034Z,85.67
2022-09-09T04:40:36.503Z,85.28
2022-09-09T04:43:03.641Z,85.33
2022-09-09T04:45:30.698Z,85.58
2022-09-09T04:47:57.720Z,85.66
2022-09-09T04:50:25.374Z,85.88
2022-09-09T04:55:21.049Z,85.61
2022-09-09T04:57:48.034Z,85.87
2022-09-09T05:00:15.459Z,85.52
2022-09-09T05:02:43.922Z,85.60
2022-09-09T05:05:12.862Z,85.42
2022-09-09T05:07:39.732Z,85.40
2022-09-09T05:15:02.802Z,85.39
2022-09-09T05:17:30.285Z,85.28
2022-09-09T05:19:57.853Z,85.62
2022-09-09T05:22:24.928Z,85.33
2022-09-09T05:29:47.130Z,84.96
2022-09-09T05:32:16.297Z,85.46
2022-09-09T05:37:10.380Z,84.64
2022-09-09T05:39:38.392Z,84.56
2022-09-09T05:44:31.743Z,84.68
2022-09-09T05:46:59.339Z,84.51
2022-09-09T05:49:26.590Z,84.29
2022-09-09T05:51:54.227Z,84.54
2022-09-09T05:54:21.022Z,84.62
2022-09-09T06:06:39.123Z,84.30
2022-09-09T06:09:09.705Z,84.14
2022-09-09T06:16:34.331Z,84.61
2022-09-09T06:19:01.944Z,84.46
2022-09-09T06:21:30.025Z,84.77
2022-09-09T06:24:00.886Z,84.33
2022-09-09T06:28:59.499Z,84.53
2022-09-09T06:31:32.195Z,84.66
2022-09-09T06:34:01.231Z,84.35
2022-09-09T06:36:31.552Z,84.40
2022-09-09T06:38:58.657Z,84.33
2022-09-09T06:41:27.488Z,84.41
2022-09-09T06:43:55.069Z,84.17
2022-09-09T06:46:24.280Z,84.01
2022-09-09T06:48:51.817Z,83.23
2022-09-09T06:51:21.129Z,83.72
2022-09-09T06:53:48.575Z,82.32
2022-09-09T06:56:18.448Z,80.08
2022-09-09T06:58:45.601Z,79.24
2022-09-09T07:06:08.669Z,79.55
2022-09-09T07:08:36.168Z,79.80
2022-09-09T07:11:03.273Z,79.86
2022-09-09T07:13:30.205Z,79.96
2022-09-09T07:15:57.227Z,80.40
2022-09-09T07:18:24.020Z,79.65
2022-09-09T07:28:14.381Z,79.71
2022-09-09T07:30:42.179Z,79.98
2022-09-09T07:33:09.261Z,79.90
2022-09-09T07:35:38.285Z,80.50
2022-09-09T07:40:35.289Z,80.07
2022-09-09T07:43:02.279Z,80.04
2022-09-09T07:45:30.274Z,80.08
2022-09-09T07:47:57.088Z,79.61
2022-09-09T07:50:25.024Z,79.70
2022-09-09T07:52:53.434Z,79.87
2022-09-09T07:55:21.362Z,79.43
2022-09-09T07:57:48.548Z,79.26
2022-09-09T08:00:16.289Z,79.46
2022-09-09T08:02:43.336Z,79.35
2022-09-09T08:05:10.517Z,79.10
2022-09-09T08:07:37.424Z,78.62
2022-09-09T08:10:04.979Z,78.59
2022-09-09T08:12:32.002Z,78.21
2022-09-09T08:14:59.046Z,78.41
2022-09-09T08:17:26.030Z,77.97
2022-09-09T08:19:52.968Z,78.40
2022-09-09T08:22:20.608Z,77.78
2022-09-09T08:24:48.478Z,77.69
2022-09-09T08:27:15.325Z,77.21
2022-09-09T08:29:42.106Z,77.27
2022-09-09T08:34:35.147Z,77.01
2022-09-09T08:37:02.110Z,77.33
2022-09-09T08:39:29.016Z,77.27
2022-09-09T08:41:56.395Z,77.21
2022-09-09T08:44:30.389Z,77.09
2022-09-09T08:46:58.042Z,76.92
2022-09-09T08:49:28.146Z,76.90
2022-09-09T08:51:56.629Z,76.31
2022-09-09T08:56:50.388Z,76.21
2022-09-09T08:59:20.064Z,76.60
2022-09-09T09:01:51.628Z,75.89
2022-09-09T09:04:19.997Z,76.00
2022-09-09T09:06:48.381Z,75.78
2022-09-09T09:09:15.496Z,76.00
2022-09-09T09:11:48.393Z,75.91
2022-09-09T09:14:15.647Z,75.71
2022-09-09T09:16:50.036Z,75.47
2022-09-09T09:21:46.245Z,75.21
2022-09-09T09:24:21.385Z,74.93
2022-09-09T09:26:49.455Z,75.03
2022-09-09T09:29:20.134Z,74.88
2022-09-09T09:31:49.383Z,75.50
2022-09-09T09:34:16.349Z,74.86
2022-09-09T09:36:46.021Z,75.51
2022-09-09T09:42:17.142Z,75.69
2022-09-09T09:44:46.083Z,76.11
2022-09-09T09:47:15.953Z,75.98
2022-09-09T09:49:45.994Z,75.51
2022-09-09T09:52:18.295Z,75.33
2022-09-09T09:54:45.318Z,75.82
2022-09-09T09:57:12.341Z,75.72
2022-09-09T09:59:42.363Z,75.16
2022-09-09T10:02:09.500Z,74.24
2022-09-09T10:04:36.430Z,74.09
2022-09-09T10:07:03.509Z,74.51
2022-09-09T10:09:32.076Z,73.50
2022-09-09T10:12:00.417Z,73.68
2022-09-09T10:14:27.577Z,72.39
2022-09-09T10:16:54.369Z,73.20
2022-09-09T10:19:21.409Z,73.08
2022-09-09T10:21:48.780Z,72.81
2022-09-09T10:24:18.634Z,73.07
2022-09-09T10:26:51.961Z,72.42
2022-09-09T10:29:19.326Z,73.16
2022-09-09T10:31:49.683Z,74.16
2022-09-09T10:34:19.516Z,74.57
2022-09-09T10:36:50.436Z,75.29
2022-09-09T10:39:20.320Z,76.47
2022-09-09T10:41:47.569Z,76.15
2022-09-09T10:44:17.442Z,76.36
2022-09-09T10:46:45.561Z,76.21
2022-09-09T10:49:12.395Z,77.41
2022-09-09T10:51:39.924Z,76.55
2022-09-09T10:54:07.177Z,76.67
2022-09-09T10:56:35.516Z,76.58
2022-09-09T10:59:02.754Z,76.84
2022-09-09T11:01:34.952Z,76.69
2022-09-09T11:04:06.908Z,77.46
2022-09-09T11:06:37.873Z,77.15
2022-09-09T11:09:06.496Z,77.65
2022-09-09T11:11:33.473Z,77.44
2022-09-09T11:14:05.088Z,77.74
2022-09-09T11:21:36.147Z,77.20
2022-09-09T11:24:11.045Z,76.67
2022-09-09T11:26:40.480Z,76.80
2022-09-09T11:29:08.742Z,77.64
2022-09-09T11:31:57.619Z,77.95
2022-09-09T11:37:06.439Z,76.56
2022-09-09T11:39:50.003Z,75.98
2022-09-09T11:42:17.244Z,75.81
2022-09-09T11:52:43.383Z,75.34
2022-09-09T11:55:13.371Z,75.03
2022-09-09T11:57:40.191Z,74.38
2022-09-09T12:00:27.199Z,73.62
2022-09-09T12:02:54.345Z,73.76
2022-09-09T12:05:23.281Z,73.91
2022-09-09T12:07:55.039Z,73.61
2022-09-09T12:10:34.393Z,73.35
2022-09-09T12:13:11.188Z,72.13
2022-09-09T12:18:24.281Z,72.19
2022-09-09T12:20:56.531Z,71.69
2022-09-09T12:23:33.463Z,71.78
2022-09-09T12:26:02.083Z,71.70
2022-09-09T12:28:34.431Z,72.05
2022-09-09T12:31:07.776Z,71.13
2022-09-09T12:33:40.432Z,70.91
2022-09-09T12:36:14.033Z,70.53
2022-09-09T12:38:42.475Z,70.27
2022-09-09T12:41:09.601Z,69.92
2022-09-09T12:48:40.665Z,70.40
2022-09-09T12:51:18.589Z,70.12
2022-09-09T12:53:49.550Z,68.70
2022-09-09T12:56:21.083Z,68.45
2022-09-09T12:58:49.005Z,68.28
2022-09-09T13:01:27.976Z,68.76
2022-09-09T13:03:54.750Z,69.08
2022-09-09T13:06:29.489Z,67.75
2022-09-09T13:08:57.903Z,67.32
2022-09-09T13:11:31.180Z,68.18
2022-09-09T13:13:58.661Z,67.29
2022-09-09T13:16:34.275Z,67.50
2022-09-09T13:19:10.541Z,66.73
2022-09-09T13:21:38.506Z,67.15
2022-09-09T13:24:29.600Z,66.91
2022-09-09T13:27:03.024Z,67.39
2022-09-09T13:29:30.673Z,66.67
2022-09-09T13:32:07.589Z,66.63
2022-09-09T13:34:35.284Z,66.38
2022-09-09T13:37:21.729Z,65.36
2022-09-09T13:39:53.533Z,65.77
2022-09-09T13:42:27.367Z,66.25
2022-09-09T13:44:54.732Z,65.83
2022-09-09T13:47:24.380Z,66.13
2022-09-09T13:49:50.999Z,66.35
2022-09-09T13:52:20.008Z,65.22
2022-09-09T13:54:50.909Z,65.06
2022-09-09T13:57:19.320Z,65.22
2022-09-09T14:00:05.176Z,65.13
2022-09-09T14:02:33.566Z,65.06
2022-09-09T14:05:00.262Z,64.82
2022-09-09T14:07:27.838Z,64.63
2022-09-09T14:09:54.587Z,64.87
2022-09-09T14:12:21.318Z,64.69
2022-09-09T14:14:48.003Z,64.22
2022-09-09T14:17:15.575Z,65.06
2022-09-09T14:19:42.231Z,65.11
2022-09-09T14:22:08.947Z,65.24
2022-09-09T14:24:35.672Z,65.04
2022-09-09T14:27:02.360Z,64.95
2022-09-09T14:29:29.162Z,64.75
2022-09-09T14:31:56.026Z,64.61
2022-09-09T14:34:22.583Z,65.00
2022-09-09T14:36:49.599Z,65.94
2022-09-09T14:39:16.179Z,65.46
2022-09-09T14:41:42.778Z,65.81
2022-09-09T14:44:09.767Z,65.29
2022-09-09T14:46:36.366Z,65.72
2022-09-09T14:49:02.943Z,65.55
2022-09-09T14:51:30.080Z,65.47
2022-09-09T14:53:58.700Z,65.49
2022-09-09T14:56:30.938Z,65.35
2022-09-09T14:58:59.280Z,65.56
2022-09-09T15:01:28.486Z,65.55
2022-09-09T15:03:56.493Z,65.53
2022-09-09T15:06:24.325Z,65.01
2022-09-09T15:08:51.782Z,65.03
2022-09-09T15:11:18.389Z,65.20
2022-09-09T15:13:45.111Z,64.68
2022-09-09T15:16:13.270Z,65.17
2022-09-09T15:18:43.887Z,65.98
2022-09-09T15:21:14.872Z,66.22
2022-09-09T15:23:41.488Z,67.49
2022-09-09T15:26:08.625Z,67.25
2022-09-09T15:28:39.159Z,67.40
2022-09-09T15:31:08.816Z,67.55
2022-09-09T15:33:37.824Z,68.26
2022-09-09T15:36:18.479Z,68.41
2022-09-09T15:38:45.380Z,68.68
2022-09-09T15:41:12.690Z,68.71
2022-09-09T15:43:39.276Z,68.83
2022-09-09T15:46:18.166Z,69.39
2022-09-09T15:48:46.666Z,69.54
2022-09-09T15:51:37.904Z,69.85
2022-09-09T15:54:02.160Z,70.32
2022-09-09T15:56:29.551Z,69.66
2022-09-09T15:58:57.926Z,69.82
2022-09-09T16:01:24.984Z,70.96
2022-09-09T16:03:52.211Z,70.44
2022-09-09T16:06:19.789Z,70.79
2022-09-09T16:08:51.383Z,70.50
2022-09-09T16:11:22.194Z,70.41
2022-09-09T16:13:51.219Z,70.59
2022-09-09T16:16:20.656Z,70.22
2022-09-09T16:18:48.821Z,70.88
2022-09-09T16:21:16.995Z,70.67
2022-09-09T16:23:43.819Z,70.73
2022-09-09T16:26:14.163Z,70.59
2022-09-09T16:28:40.978Z,70.94
2022-09-09T16:31:08.432Z,71.16
2022-09-09T16:33:35.114Z,71.01
2022-09-09T16:36:11.554Z,70.92
2022-09-09T16:38:39.917Z,71.30
2022-09-09T16:41:07.373Z,70.95
2022-09-09T16:43:34.942Z,71.49
2022-09-09T16:46:01.845Z,71.46
2022-09-09T16:48:32.117Z,71.24
2022-09-09T16:51:06.194Z,71.44
2022-09-09T16:53:33.473Z,71.23
2022-09-09T16:56:05.863Z,71.45
2022-09-09T16:58:32.893Z,71.81
2022-09-09T17:01:00.010Z,71.89
2022-09-09T17:03:27.231Z,71.35
2022-09-09T17:06:21.857Z,71.79
2022-09-09T17:09:13.703Z,72.56
2022-09-09T17:12:01.351Z,72.42
2022-09-09T17:14:28.534Z,72.62
2022-09-09T17:16:55.227Z,72.89
2022-09-09T17:19:21.806Z,72.81
2022-09-09T17:24:35.737Z,71.99
2022-09-09T17:27:03.396Z,72.38
2022-09-09T17:29:30.025Z,72.51
2022-09-09T17:31:56.598Z,72.21
2022-09-09T17:34:23.658Z,72.19
2022-09-09T17:36:50.888Z,71.72
2022-09-09T17:39:17.526Z,71.88
2022-09-09T17:41:44.216Z,71.42
2022-09-09T17:44:11.244Z,71.74
2022-09-09T17:46:39.442Z,71.77
2022-09-09T17:49:07.638Z,71.84
2022-09-09T17:51:36.061Z,71.65
2022-09-09T17:54:04.341Z,71.66
2022-09-09T17:56:32.714Z,71.58
2022-09-09T17:59:00.374Z,71.62
2022-09-09T18:01:28.201Z,71.54
2022-09-09T18:03:57.552Z,71.74
2022-09-09T18:06:27.817Z,71.72
2022-09-09T18:08:55.865Z,71.96
2022-09-09T18:11:24.125Z,71.48
2022-09-09T18:13:51.564Z,71.00
2022-09-09T18:16:18.972Z,71.25
2022-09-09T18:18:46.547Z,71.22
2022-09-09T18:21:13.407Z,71.19
2022-09-09T18:23:41.161Z,70.81
2022-09-09T18:26:10.509Z,70.35
2022-09-09T18:28:38.037Z,70.07
2022-09-09T18:31:05.499Z,70.04
2022-09-09T18:33:32.118Z,70.04
2022-09-09T18:36:05.004Z,69.92
2022-09-09T18:38:33.318Z,70.44
2022-09-09T18:40:59.945Z,69.90
2022-09-09T18:43:26.538Z,70.30
2022-09-09T18:45:53.089Z,70.40
2022-09-09T18:48:19.666Z,70.72
2022-09-09T18:50:46.320Z,70.58
2022-09-09T18:53:12.899Z,70.66
2022-09-09T18:55:39.460Z,70.99
2022-09-09T18:58:06.139Z,70.86
2022-09-09T19:00:33.508Z,70.96
2022-09-09T19:03:00.234Z,71.41
2022-09-09T19:05:36.469Z,70.89
2022-09-09T19:08:03.123Z,71.15
2022-09-09T19:10:31.684Z,71.20
2022-09-09T19:12:58.463Z,70.86
2022-09-09T19:15:29.802Z,71.37
2022-09-09T19:17:56.941Z,71.25
2022-09-09T19:20:24.755Z,71.10
2022-09-09T19:22:51.368Z,71.71
2022-09-09T19:25:17.990Z,71.54
2022-09-09T19:27:44.626Z,71.55
2022-09-09T19:30:11.436Z,71.74
2022-09-09T19:32:52.730Z,72.11
2022-09-09T19:35:20.679Z,71.80
2022-09-09T19:37:47.278Z,72.28
2022-09-09T19:40:14.555Z,71.93
2022-09-09T19:42:41.231Z,72.27
2022-09-09T19:45:10.673Z,72.25
2022-09-09T19:47:37.435Z,72.20
2022-09-09T19:50:05.900Z,72.64
2022-09-09T19:52:32.508Z,72.47
2022-09-09T19:54:59.645Z,72.20
2022-09-09T19:57:30.425Z,72.82
2022-09-09T19:59:57.631Z,72.49
2022-09-09T20:02:25.116Z,72.87
2022-09-09T20:04:52.079Z,72.75
2022-09-09T20:07:19.331Z,72.56
2022-09-09T20:09:45.920Z,72.68
2022-09-09T20:12:12.491Z,73.03
2022-09-09T20:14:40.035Z,72.55
2022-09-09T20:17:07.212Z,72.65
2022-09-09T20:19:34.899Z,73.20
2022-09-09T20:22:01.540Z,72.92
2022-09-09T20:24:28.774Z,73.40
2022-09-09T20:26:56.548Z,73.17
2022-09-09T20:29:23.225Z,73.53
2022-09-09T20:31:49.834Z,73.37
2022-09-09T20:34:18.906Z,73.42
2022-09-09T20:36:46.208Z,73.40
2022-09-09T20:39:15.271Z,73.79
2022-09-09T20:41:44.539Z,73.77
2022-09-09T20:44:14.413Z,73.96
2022-09-09T20:46:43.189Z,74.34
2022-09-09T20:49:11.047Z,74.51
2022-09-09T20:51:37.707Z,74.54
2022-09-09T20:54:05.755Z,74.45
2022-09-09T20:56:33.946Z,74.79
2022-09-09T20:59:01.045Z,74.90
2022-09-09T21:01:27.695Z,74.48
2022-09-09T21:03:54.500Z,74.70
2022-09-09T21:06:21.311Z,74.16
2022-09-09T21:08:47.939Z,74.25
2022-09-09T21:11:15.450Z,74.65
2022-09-09T21:13:42.085Z,74.94
2022-09-09T21:16:09.761Z,74.51
2022-09-09T21:18:36.519Z,74.82
2022-09-09T21:21:03.826Z,74.54
2022-09-09T21:23:31.527Z,75.00
2022-09-09T21:25:58.158Z,75.05
2022-09-09T21:28:25.943Z,74.85
2022-09-09T21:30:53.559Z,74.93
2022-09-09T21:33:20.994Z,74.94
2022-09-09T21:35:47.530Z,74.93
2022-09-09T21:38:16.376Z,75.36
2022-09-09T21:40:43.364Z,75.80
2022-09-09T21:43:13.321Z,75.49
2022-09-09T21:45:40.804Z,75.86
2022-09-09T21:48:08.195Z,75.89
2022-09-09T21:50:41.844Z,75.89
2022-09-09T21:53:10.277Z,76.19
2022-09-09T21:55:37.909Z,75.97
2022-09-09T21:58:05.241Z,76.06
2022-09-09T22:00:32.144Z,75.58
2022-09-09T22:02:59.166Z,75.93
2022-09-09T22:05:27.838Z,75.98
2022-09-09T22:07:54.626Z,75.80
2022-09-09T22:10:21.829Z,75.81
2022-09-09T22:12:48.623Z,75.83
2022-09-09T22:15:15.955Z,75.86
2022-09-09T22:17:42.533Z,75.85
2022-09-09T22:20:09.420Z,75.60
2022-09-09T22:22:35.977Z,75.29
2022-09-09T22:25:02.638Z,75.65
2022-09-09T22:27:29.246Z,75.41
2022-09-09T22:29:55.795Z,75.77
2022-09-09T22:32:22.792Z,75.79
2022-09-09T22:34:51.331Z,75.62
2022-09-09T22:37:18.226Z,75.39
2022-09-09T22:39:44.867Z,75.99
2022-09-09T22:42:12.591Z,75.80
2022-09-09T22:44:39.157Z,75.92
2022-09-09T22:47:05.953Z,78.03
2022-09-09T22:49:32.545Z,78.37
2022-09-09T22:51:59.167Z,78.05
2022-09-09T22:54:25.776Z,76.98
2022-09-09T22:56:52.401Z,76.60
2022-09-09T22:59:19.744Z,76.77
2022-09-09T23:01:47.031Z,76.36
2022-09-09T23:04:13.850Z,76.54
2022-09-09T23:06:43.523Z,76.58
2022-09-09T23:09:11.206Z,75.97
2022-09-09T23:11:37.821Z,76.30
2022-09-09T23:14:07.121Z,75.89
2022-09-09T23:16:38.463Z,75.95
2022-09-09T23:19:06.428Z,76.06
2022-09-09T23:21:33.107Z,75.89
2022-09-09T23:23:59.951Z,76.32
2022-09-09T23:26:29.035Z,76.31
2022-09-09T23:28:58.569Z,75.87
2022-09-09T23:31:26.046Z,76.05
2022-09-09T23:33:55.715Z,76.06
2022-09-09T23:36:24.877Z,75.79
2022-09-09T23:38:51.694Z,76.09
2022-09-09T23:41:21.223Z,75.90
2022-09-09T23:43:48.542Z,76.05
2022-09-09T23:46:15.892Z,75.64
2022-09-09T23:48:43.129Z,75.91
2022-09-09T23:51:11.033Z,75.92
2022-09-09T23:53:37.751Z,75.78
2022-09-09T23:56:05.358Z,76.29
2022-09-09T23:58:32.518Z,75.13
